createdAt,value
2023-05-12T00:01:39.123Z,15.13
2023-05-12T00:04:07.508Z,15.01
2023-05-12T00:06:35.660Z,14.86
2023-05-12T00:09:06.221Z,14.81
2023-05-12T00:11:34.233Z,14.89
2023-05-12T00:14:02.250Z,14.88
2023-05-12T00:16:30.230Z,14.76
2023-05-12T00:18:58.201Z,14.72
2023-05-12T00:21:26.130Z,14.73
2023-05-12T00:23:53.969Z,14.75
2023-05-12T00:26:23.224Z,14.76
2023-05-12T00:28:51.871Z,14.70
2023-05-12T00:31:19.818Z,14.45
2023-05-12T00:33:47.848Z,14.63
2023-05-12T00:36:15.729Z,14.57
2023-05-12T00:38:43.658Z,14.46
2023-05-12T00:41:11.636Z,14.46
2023-05-12T00:43:40.866Z,14.41
2023-05-12T00:46:09.273Z,14.42
2023-05-12T00:48:37.374Z,14.37
2023-05-12T00:51:06.221Z,14.47
2023-05-12T00:53:47.775Z,14.35
2023-05-12T00:56:17.883Z,14.34
2023-05-12T00:58:47.437Z,14.35
2023-05-12T01:01:16.731Z,14.23
2023-05-12T01:03:46.196Z,14.15
2023-05-12T01:06:17.792Z,14.15
2023-05-12T01:08:47.031Z,14.16
2023-05-12T01:11:14.970Z,14.19
2023-05-12T01:13:42.819Z,14.16
2023-05-12T01:16:14.550Z,14.15
2023-05-12T01:18:49.466Z,14.28
2023-05-12T01:21:18.163Z,14.25
2023-05-12T01:23:51.255Z,14.11
2023-05-12T01:26:20.671Z,14.12
2023-05-12T01:28:49.434Z,14.24
2023-05-12T01:31:19.628Z,14.23
2023-05-12T01:33:49.268Z,14.17
2023-05-12T01:36:17.369Z,14.20
2023-05-12T01:38:45.958Z,14.05
2023-05-12T01:41:13.820Z,14.13
2023-05-12T01:43:43.214Z,14.16
2023-05-12T01:46:11.907Z,14.07
2023-05-12T01:48:41.471Z,14.06
2023-05-12T01:51:10.260Z,14.00
2023-05-12T01:53:38.348Z,14.00
2023-05-12T01:56:06.816Z,13.99
2023-05-12T01:58:36.046Z,13.94
2023-05-12T02:01:05.940Z,13.83
2023-05-12T02:03:34.741Z,13.90
2023-05-12T02:06:02.814Z,13.91
2023-05-12T02:08:30.875Z,13.81
2023-05-12T02:11:06.138Z,13.79
2023-05-12T02:13:34.323Z,13.74
2023-05-12T02:16:02.967Z,13.63
2023-05-12T02:18:32.395Z,13.57
2023-05-12T02:21:00.557Z,13.54
2023-05-12T02:23:30.361Z,13.54
2023-05-12T02:25:58.348Z,13.55
2023-05-12T02:28:26.286Z,13.51
2023-05-12T02:30:54.463Z,13.46
2023-05-12T02:33:23.123Z,13.46
2023-05-12T02:35:52.631Z,13.42
2023-05-12T02:38:20.666Z,13.44
2023-05-12T02:40:49.020Z,13.42
2023-05-12T02:43:17.057Z,13.48
2023-05-12T02:45:45.018Z,13.45
2023-05-12T02:48:13.026Z,13.46
2023-05-12T02:50:40.936Z,13.45
2023-05-12T02:53:10.335Z,13.45
2023-05-12T02:55:38.303Z,13.41
2023-05-12T02:58:06.184Z,13.40
2023-05-12T03:00:34.269Z,13.27
2023-05-12T03:03:03.013Z,13.19
2023-05-12T03:05:34.502Z,13.29
2023-05-12T03:08:02.774Z,13.30
2023-05-12T03:10:32.315Z,13.27
2023-05-12T03:13:00.339Z,13.40
2023-05-12T03:15:29.467Z,13.38
2023-05-12T03:17:57.857Z,13.32
2023-05-12T03:20:25.763Z,13.31
2023-05-12T03:22:53.742Z,13.27
2023-05-12T03:25:21.943Z,13.33
2023-05-12T03:27:51.314Z,13.33
2023-05-12T03:30:19.385Z,13.39
2023-05-12T03:32:47.623Z,13.28
2023-05-12T03:35:15.961Z,13.25
2023-05-12T03:37:43.823Z,13.23
2023-05-12T03:40:12.652Z,13.25
2023-05-12T03:42:40.544Z,13.26
2023-05-12T03:45:11.812Z,13.28
2023-05-12T03:47:40.851Z,13.27
2023-05-12T03:50:10.129Z,13.28
2023-05-12T03:52:41.486Z,13.29
2023-05-12T03:55:10.422Z,13.28
2023-05-12T03:57:38.566Z,13.28
2023-05-12T04:00:07.980Z,13.25
2023-05-12T04:02:46.375Z,13.23
2023-05-12T04:05:15.563Z,13.21
2023-05-12T04:07:43.443Z,13.19
2023-05-12T04:10:11.648Z,13.17
2023-05-12T04:12:39.509Z,13.03
2023-05-12T04:15:09.706Z,13.03
2023-05-12T04:17:37.674Z,13.01
2023-05-12T04:20:08.541Z,12.95
2023-05-12T04:22:36.586Z,12.96
2023-05-12T04:25:04.737Z,12.98
2023-05-12T04:27:32.715Z,12.98
2023-05-12T04:30:03.962Z,13.00
2023-05-12T04:32:36.434Z,13.06
2023-05-12T04:35:05.300Z,13.06
2023-05-12T04:37:34.742Z,13.10
2023-05-12T04:40:02.945Z,13.09
2023-05-12T04:42:31.340Z,13.13
2023-05-12T04:44:59.414Z,13.19
2023-05-12T04:47:27.368Z,13.21
2023-05-12T04:49:55.269Z,13.26
2023-05-12T04:52:24.643Z,13.26
2023-05-12T04:54:54.248Z,13.37
2023-05-12T04:57:23.198Z,13.39
2023-05-12T04:59:51.685Z,13.44
2023-05-12T05:02:19.562Z,13.50
2023-05-12T05:04:47.862Z,13.48
2023-05-12T05:07:16.560Z,13.48
2023-05-12T05:09:44.589Z,13.52
2023-05-12T05:12:13.871Z,13.59
2023-05-12T05:14:41.887Z,13.60
2023-05-12T05:17:11.345Z,13.59
2023-05-12T05:19:53.461Z,13.70
2023-05-12T05:22:23.759Z,13.74
2023-05-12T05:24:51.959Z,13.82
2023-05-12T05:27:21.529Z,13.91
2023-05-12T05:29:50.145Z,13.95
2023-05-12T05:32:18.799Z,14.01
2023-05-12T05:34:46.697Z,14.13
2023-05-12T05:37:14.655Z,14.13
2023-05-12T05:39:42.955Z,14.18
2023-05-12T05:42:10.793Z,14.27
2023-05-12T05:44:41.170Z,14.36
2023-05-12T05:47:09.409Z,14.40
2023-05-12T05:49:37.537Z,14.46
2023-05-12T05:52:06.713Z,14.61
2023-05-12T05:54:34.964Z,14.60
2023-05-12T05:57:03.225Z,14.65
2023-05-12T05:59:32.294Z,14.73
2023-05-12T06:02:01.869Z,14.82
2023-05-12T06:04:30.067Z,14.77
2023-05-12T06:06:59.171Z,14.91
2023-05-12T06:09:28.554Z,15.06
2023-05-12T06:11:56.782Z,15.01
2023-05-12T06:14:24.716Z,15.17
2023-05-12T06:16:52.813Z,15.19
2023-05-12T06:19:22.343Z,15.26
2023-05-12T06:21:51.927Z,15.35
2023-05-12T06:24:19.979Z,15.58
2023-05-12T06:26:48.129Z,15.72
2023-05-12T06:29:16.079Z,15.92
2023-05-12T06:31:44.129Z,15.89
2023-05-12T06:34:12.203Z,15.99
2023-05-12T06:36:44.343Z,16.44
2023-05-12T06:39:14.445Z,16.59
2023-05-12T06:41:44.418Z,16.86
2023-05-12T06:44:21.064Z,16.91
2023-05-12T06:46:53.085Z,16.76
2023-05-12T06:49:21.613Z,16.87
2023-05-12T06:51:51.085Z,16.85
2023-05-12T06:54:18.953Z,16.85
2023-05-12T06:56:47.197Z,17.07
2023-05-12T06:59:15.120Z,17.23
2023-05-12T07:01:43.456Z,17.35
2023-05-12T07:04:11.705Z,17.56
2023-05-12T07:06:39.685Z,17.58
2023-05-12T07:09:08.942Z,17.75
2023-05-12T07:11:36.848Z,17.67
2023-05-12T07:14:04.784Z,17.78
2023-05-12T07:16:32.704Z,18.10
2023-05-12T07:19:00.880Z,18.13
2023-05-12T07:21:29.587Z,18.29
2023-05-12T07:23:57.502Z,18.20
2023-05-12T07:26:28.968Z,18.66
2023-05-12T07:28:57.333Z,18.89
2023-05-12T07:31:25.289Z,18.95
2023-05-12T07:33:53.531Z,19.10
2023-05-12T07:36:22.201Z,19.33
2023-05-12T07:38:50.201Z,19.35
2023-05-12T07:41:18.830Z,19.70
2023-05-12T07:43:48.117Z,19.88
2023-05-12T07:46:16.050Z,19.76
2023-05-12T07:48:44.111Z,19.75
2023-05-12T07:51:12.297Z,19.96
2023-05-12T07:53:40.165Z,20.05
2023-05-12T07:56:08.416Z,19.94
2023-05-12T07:58:36.339Z,20.05
2023-05-12T08:01:06.877Z,20.15
2023-05-12T08:03:36.080Z,20.19
2023-05-12T08:06:05.868Z,20.04
2023-05-12T08:08:33.815Z,20.50
2023-05-12T08:11:02.043Z,20.51
2023-05-12T08:13:29.951Z,20.48
2023-05-12T08:15:58.130Z,20.51
2023-05-12T08:18:27.855Z,21.19
2023-05-12T08:20:56.144Z,21.00
2023-05-12T08:23:25.083Z,21.30
2023-05-12T08:25:52.996Z,21.65
2023-05-12T08:28:20.860Z,21.74
2023-05-12T08:30:48.925Z,21.70
2023-05-12T08:33:16.930Z,21.58
2023-05-12T08:35:46.302Z,21.12
2023-05-12T08:38:14.294Z,20.75
2023-05-12T08:40:48.067Z,21.05
2023-05-12T08:43:26.132Z,21.30
2023-05-12T08:45:57.664Z,22.24
2023-05-12T08:48:28.218Z,21.81
2023-05-12T08:50:58.152Z,21.36
2023-05-12T08:53:27.202Z,21.17
2023-05-12T08:57:09.314Z,21.17
2023-05-12T08:58:48.670Z,21.16
2023-05-12T09:01:18.501Z,21.28
2023-05-12T09:03:46.752Z,21.28
2023-05-12T09:06:16.051Z,21.27
2023-05-12T09:08:43.983Z,21.03
2023-05-12T09:11:13.634Z,21.32
2023-05-12T09:13:50.151Z,21.40
2023-05-12T09:16:20.606Z,21.40
2023-05-12T09:18:51.550Z,21.37
2023-05-12T09:21:21.285Z,21.55
2023-05-12T09:23:56.966Z,22.10
2023-05-12T09:26:26.207Z,21.83
2023-05-12T09:28:56.509Z,21.61
2023-05-12T09:31:27.299Z,21.46
2023-05-12T09:33:55.616Z,21.61
2023-05-12T09:36:26.552Z,21.39
2023-05-12T09:39:04.593Z,21.63
2023-05-12T09:41:32.712Z,21.66
2023-05-12T09:44:01.305Z,21.44
2023-05-12T09:46:29.591Z,21.98
2023-05-12T09:48:58.366Z,22.03
2023-05-12T09:51:29.295Z,22.32
2023-05-12T09:53:58.141Z,21.84
2023-05-12T09:56:28.988Z,22.46
2023-05-12T09:58:58.304Z,22.14
2023-05-12T10:01:27.098Z,22.26
2023-05-12T10:03:56.924Z,22.51
2023-05-12T10:06:29.323Z,22.29
2023-05-12T10:09:06.208Z,21.92
2023-05-12T10:11:34.809Z,22.26
2023-05-12T10:14:02.913Z,22.30
2023-05-12T10:16:31.452Z,22.90
2023-05-12T10:18:59.923Z,22.90
2023-05-12T10:21:29.520Z,22.71
2023-05-12T10:23:58.404Z,22.50
2023-05-12T10:26:26.412Z,22.55
2023-05-12T10:28:54.316Z,23.56
2023-05-12T10:31:23.399Z,23.05
2023-05-12T10:33:58.946Z,22.75
2023-05-12T10:36:27.461Z,23.17
2023-05-12T10:38:57.267Z,22.44
2023-05-12T10:41:31.774Z,23.51
2023-05-12T10:43:59.843Z,23.73
2023-05-12T10:46:28.220Z,24.37
2023-05-12T10:48:57.346Z,24.62
2023-05-12T10:51:28.323Z,23.65
2023-05-12T10:54:00.049Z,23.23
2023-05-12T10:56:30.096Z,22.88
2023-05-12T10:59:09.323Z,22.93
2023-05-12T11:01:38.051Z,22.73
2023-05-12T11:04:15.723Z,22.93
2023-05-12T11:06:46.645Z,22.13
2023-05-12T11:09:17.863Z,22.97
2023-05-12T11:11:47.601Z,23.47
2023-05-12T11:14:15.993Z,23.24
2023-05-12T11:16:44.473Z,22.97
2023-05-12T11:19:12.841Z,23.23
2023-05-12T11:21:41.169Z,22.73
2023-05-12T11:24:13.133Z,22.78
2023-05-12T11:26:43.603Z,23.38
2023-05-12T11:29:11.907Z,23.71
2023-05-12T11:31:39.898Z,24.04
2023-05-12T11:34:13.218Z,24.03
2023-05-12T11:36:43.339Z,24.06
2023-05-12T11:39:15.092Z,23.60
2023-05-12T11:41:44.689Z,23.22
2023-05-12T11:44:17.109Z,22.95
2023-05-12T11:46:56.011Z,22.25
2023-05-12T11:49:23.975Z,22.72
2023-05-12T11:51:53.561Z,22.90
2023-05-12T11:54:22.069Z,22.76
2023-05-12T11:56:52.420Z,22.56
2023-05-12T11:59:27.895Z,22.67
2023-05-12T12:01:55.835Z,22.75
2023-05-12T12:04:34.750Z,22.48
2023-05-12T12:07:02.916Z,22.67
2023-05-12T12:09:35.260Z,22.92
2023-05-12T12:12:05.732Z,22.91
2023-05-12T12:14:33.996Z,22.72
2023-05-12T12:17:02.242Z,22.61
2023-05-12T12:19:30.268Z,22.46
2023-05-12T12:21:59.109Z,22.58
2023-05-12T12:24:27.101Z,22.85
2023-05-12T12:26:54.954Z,22.89
2023-05-12T12:29:26.204Z,23.02
2023-05-12T12:31:54.139Z,22.89
2023-05-12T12:34:22.096Z,22.85
2023-05-12T12:36:49.961Z,22.01
2023-05-12T12:39:19.813Z,21.85
2023-05-12T12:41:49.148Z,22.17
2023-05-12T12:44:17.814Z,22.97
2023-05-12T12:46:47.058Z,23.15
2023-05-12T12:49:14.979Z,22.87
2023-05-12T12:51:46.678Z,22.59
2023-05-12T12:54:15.704Z,22.67
2023-05-12T12:56:44.147Z,22.72
2023-05-12T12:59:12.913Z,22.62
2023-05-12T13:01:40.980Z,22.64
2023-05-12T13:04:10.494Z,22.56
2023-05-12T13:06:38.712Z,22.55
2023-05-12T13:09:06.638Z,22.91
2023-05-12T13:11:34.506Z,22.94
2023-05-12T13:14:04.316Z,23.01
2023-05-12T13:16:32.403Z,22.64
2023-05-12T13:19:00.459Z,22.47
2023-05-12T13:21:29.964Z,22.45
2023-05-12T13:23:57.903Z,22.48
2023-05-12T13:26:25.964Z,22.55
2023-05-12T13:28:54.211Z,22.59
2023-05-12T13:31:22.161Z,22.42
2023-05-12T13:33:50.642Z,22.31
2023-05-12T13:36:18.620Z,22.27
2023-05-12T13:38:48.047Z,22.53
2023-05-12T13:41:16.055Z,22.40
2023-05-12T13:43:44.249Z,22.39
2023-05-12T13:46:12.204Z,22.52
2023-05-12T13:48:40.110Z,22.65
2023-05-12T13:51:08.111Z,22.48
2023-05-12T13:53:40.930Z,22.36
2023-05-12T13:56:17.452Z,22.45
2023-05-12T13:58:45.749Z,22.25
2023-05-12T14:01:13.960Z,22.07
2023-05-12T14:03:42.147Z,22.47
2023-05-12T14:06:15.116Z,22.43
2023-05-12T14:08:43.086Z,22.41
2023-05-12T14:11:11.488Z,22.52
2023-05-12T14:13:40.793Z,22.41
2023-05-12T14:16:12.238Z,22.46
2023-05-12T14:18:42.596Z,22.43
2023-05-12T14:21:11.382Z,22.42
2023-05-12T14:23:39.325Z,22.57
2023-05-12T14:26:07.585Z,22.45
2023-05-12T14:28:35.537Z,22.24
2023-05-12T14:31:04.964Z,22.48
2023-05-12T14:33:33.016Z,22.53
2023-05-12T14:36:07.140Z,22.53
2023-05-12T14:38:36.929Z,22.59
2023-05-12T14:41:05.402Z,22.24
2023-05-12T14:43:33.385Z,22.16
2023-05-12T14:46:02.414Z,22.33
2023-05-12T14:48:32.046Z,22.21
2023-05-12T14:51:00.355Z,22.13
2023-05-12T14:53:28.600Z,21.77
2023-05-12T14:55:56.958Z,21.68
2023-05-12T14:58:25.130Z,21.35
2023-05-12T15:00:53.255Z,21.35
2023-05-12T15:03:21.655Z,21.69
2023-05-12T15:08:22.360Z,22.10
2023-05-12T15:10:50.418Z,21.67
2023-05-12T15:13:20.439Z,21.88
2023-05-12T15:15:48.594Z,21.72
2023-05-12T15:18:16.629Z,21.64
2023-05-12T15:20:44.573Z,21.54
2023-05-12T15:23:13.804Z,21.73
2023-05-12T15:25:41.903Z,21.67
2023-05-12T15:28:10.088Z,21.55
2023-05-12T15:30:38.089Z,21.61
2023-05-12T15:33:06.720Z,21.75
2023-05-12T15:35:35.183Z,21.78
2023-05-12T15:38:03.241Z,21.59
2023-05-12T15:40:32.641Z,21.60
2023-05-12T15:43:00.663Z,21.53
2023-05-12T15:45:28.949Z,21.67
2023-05-12T15:47:57.057Z,21.45
2023-05-12T15:50:25.228Z,21.34
2023-05-12T15:52:53.473Z,21.35
2023-05-12T15:55:21.648Z,21.28
2023-05-12T15:57:51.149Z,21.20
2023-05-12T16:00:20.501Z,21.26
2023-05-12T16:02:49.978Z,21.16
2023-05-12T16:05:18.329Z,21.06
2023-05-12T16:07:48.020Z,21.09
2023-05-12T16:10:16.092Z,21.04
2023-05-12T16:12:44.070Z,21.01
2023-05-12T16:15:14.322Z,21.02
2023-05-12T16:17:42.447Z,20.95
2023-05-12T16:20:11.544Z,20.90
2023-05-12T16:22:39.665Z,20.82
2023-05-12T16:25:08.885Z,20.88
2023-05-12T16:27:36.991Z,20.93
2023-05-12T16:30:05.395Z,20.83
2023-05-12T16:32:34.752Z,20.79
2023-05-12T16:35:02.617Z,20.77
2023-05-12T16:37:30.637Z,20.72
2023-05-12T16:39:58.944Z,20.71
2023-05-12T16:42:27.436Z,20.60
2023-05-12T16:44:55.659Z,20.47
2023-05-12T16:47:23.759Z,20.46
2023-05-12T16:49:54.498Z,20.42
2023-05-12T16:52:22.385Z,20.38
2023-05-12T16:54:50.768Z,20.21
2023-05-12T16:57:19.138Z,20.22
2023-05-12T16:59:48.345Z,20.34
2023-05-12T17:02:16.485Z,20.30
2023-05-12T17:04:44.711Z,20.15
2023-05-12T17:07:13.906Z,20.11
2023-05-12T17:09:42.328Z,20.00
2023-05-12T17:12:10.914Z,19.90
2023-05-12T17:14:38.779Z,19.84
2023-05-12T17:17:06.891Z,19.68
2023-05-12T17:19:35.452Z,19.61
2023-05-12T17:22:03.708Z,19.53
2023-05-12T17:24:33.508Z,19.53
2023-05-12T17:27:01.647Z,19.38
2023-05-12T17:29:29.522Z,19.33
2023-05-12T17:31:57.512Z,19.37
2023-05-12T17:34:25.351Z,19.26
2023-05-12T17:36:53.229Z,19.17
2023-05-12T17:39:21.139Z,19.18
2023-05-12T17:41:50.723Z,18.99
2023-05-12T17:44:18.680Z,18.89
2023-05-12T17:46:46.704Z,18.90
2023-05-12T17:49:16.891Z,18.80
2023-05-12T17:51:44.838Z,18.73
2023-05-12T19:18:29.571Z,16.38
2023-05-12T19:28:52.911Z,16.05
2023-05-12T19:31:20.914Z,16.02
2023-05-12T19:33:48.943Z,16.10
2023-05-12T19:36:16.954Z,16.02
2023-05-12T19:38:44.878Z,16.01
2023-05-12T19:41:12.866Z,16.07
2023-05-12T19:43:40.804Z,16.08
2023-05-12T19:46:10.293Z,16.13
2023-05-12T19:48:38.192Z,15.98
2023-05-12T19:51:06.089Z,15.78
2023-05-12T19:53:34.050Z,15.78
2023-05-12T19:56:01.951Z,15.72
2023-05-12T19:58:30.725Z,15.69
2023-05-12T20:00:58.791Z,15.68
2023-05-12T20:03:28.352Z,15.68
2023-05-12T20:05:56.446Z,15.73
2023-05-12T20:08:24.404Z,15.69
2023-05-12T20:10:52.356Z,15.74
2023-05-12T20:13:20.301Z,15.53
2023-05-12T20:15:48.255Z,15.60
2023-05-12T20:18:16.996Z,15.59
2023-05-12T20:20:46.336Z,15.52
2023-05-12T20:23:14.287Z,15.45
2023-05-12T20:25:42.275Z,15.50
2023-05-12T20:28:11.764Z,15.54
2023-05-12T20:30:39.964Z,15.55
2023-05-12T20:33:08.098Z,15.47
2023-05-12T20:35:36.196Z,15.32
2023-05-12T20:38:05.598Z,15.25
2023-05-12T20:40:34.382Z,15.29
2023-05-12T20:43:02.446Z,15.16
2023-05-12T20:45:30.280Z,15.20
2023-05-12T20:47:58.216Z,15.20
2023-05-12T20:50:27.671Z,14.96
2023-05-12T20:52:55.693Z,14.98
2023-05-12T20:55:26.537Z,14.91
2023-05-12T20:57:54.452Z,14.99
2023-05-12T21:00:22.620Z,15.00
2023-05-12T21:03:06.009Z,15.01
2023-05-12T21:05:37.068Z,15.06
2023-05-12T21:08:05.768Z,15.06
2023-05-12T21:10:39.268Z,15.09
2023-05-12T21:13:07.289Z,15.09
2023-05-12T21:15:35.186Z,14.96
2023-05-12T21:18:03.220Z,14.97
2023-05-12T21:20:31.359Z,14.85
2023-05-12T21:22:59.277Z,14.72
2023-05-12T21:25:27.161Z,14.53
2023-05-12T21:27:56.432Z,14.59
2023-05-12T21:30:24.375Z,14.64
2023-05-12T21:32:52.409Z,14.70
2023-05-12T21:35:20.626Z,14.59
2023-05-12T21:37:49.566Z,14.65
2023-05-12T21:40:17.702Z,14.71
2023-05-12T21:42:45.786Z,14.73
2023-05-12T21:45:15.124Z,14.67
2023-05-12T21:47:43.010Z,14.61
2023-05-12T21:50:11.800Z,14.67
2023-05-12T21:52:40.466Z,14.71
2023-05-12T21:55:12.708Z,14.73
2023-05-12T21:57:40.612Z,14.66
2023-05-12T22:00:12.208Z,14.62
2023-05-12T22:02:43.275Z,14.65
2023-05-12T22:05:11.306Z,14.63
2023-05-12T22:07:39.149Z,14.55
2023-05-12T22:10:07.840Z,14.54
2023-05-12T22:12:35.773Z,14.54
2023-05-12T22:15:03.692Z,14.55
2023-05-12T22:17:31.681Z,14.53
2023-05-12T22:20:01.022Z,14.52
2023-05-12T22:22:29.309Z,14.50
2023-05-12T22:24:57.429Z,14.39
2023-05-12T22:27:25.340Z,14.42
2023-05-12T22:29:53.241Z,14.43
2023-05-12T22:32:21.202Z,14.40
2023-05-12T22:34:49.106Z,14.37
2023-05-12T22:37:19.520Z,14.38
2023-05-12T22:39:47.492Z,14.34
2023-05-12T22:42:15.347Z,14.34
2023-05-12T22:44:43.233Z,14.31
2023-05-12T22:47:11.419Z,14.25
2023-05-12T22:49:39.452Z,14.17
2023-05-12T22:52:07.673Z,14.13
2023-05-12T22:54:37.042Z,14.10
2023-05-12T22:57:05.297Z,14.06
2023-05-12T22:59:33.167Z,13.96
2023-05-12T23:02:01.104Z,13.92
2023-05-12T23:04:29.015Z,13.89
2023-05-12T23:06:56.859Z,13.86
2023-05-12T23:09:24.679Z,13.84
2023-05-12T23:11:53.924Z,13.83
2023-05-12T23:14:21.759Z,13.75
2023-05-12T23:16:49.654Z,13.74
2023-05-12T23:19:17.612Z,13.70
2023-05-12T23:21:45.525Z,13.64
2023-05-12T23:24:13.384Z,13.62
2023-05-12T23:26:41.516Z,13.61
2023-05-12T23:29:11.452Z,13.60
2023-05-12T23:31:39.584Z,13.57
2023-05-12T23:34:07.514Z,13.55
2023-05-12T23:36:35.436Z,13.52
2023-05-12T23:39:04.189Z,13.49
2023-05-12T23:41:33.999Z,13.43
2023-05-12T23:44:02.291Z,13.41
2023-05-12T23:46:31.638Z,13.39
2023-05-12T23:48:59.604Z,13.33
2023-05-12T23:51:28.482Z,13.31
2023-05-12T23:53:56.494Z,13.29
2023-05-12T23:56:24.333Z,13.27
2023-05-12T23:58:52.210Z,13.24
